Data for 09/30/2014

Time Sea-Level Adjusted Pressure Absolute Pressure Temperature Relative Humidity Dew Point Precipitation   
(mb) (inHg) (mb) (inHg) (C) (F) (%) (C) (F) (mm) (in)
00:05 1014 29.94 843 24.89 7.1 44.9 86 5 41 0 0
00:10 1014 29.94 843 24.89 7.1 44.8 88 5.2 41.4 0 0
00:15 1014 29.94 843 24.89 7.1 44.8 89 5.4 41.7 0 0
00:20 1014 29.94 843 24.89 7.3 45.2 89 5.6 42 0 0
00:25 1014 29.94 843 24.89 7.5 45.5 87 5.4 41.8 0 0
00:30 1014 29.94 843 24.89 7.8 46 86 5.5 41.9 0 0
00:35 1014 29.94 843 24.89 7.8 46.1 85 5.5 41.9 0 0
00:40 1014 29.94 843 24.89 7.9 46.2 84 5.3 41.6 0 0
00:45 1014 29.94 843 24.89 8 46.3 84 5.4 41.7 0 0
00:50 1014 29.94 843 24.89 7.9 46.3 84 5.3 41.6 0 0
00:55 1014 29.94 843 24.89 7.9 46.2 86 5.7 42.2 0 0
01:00 1014 29.94 843 24.89 7.6 45.7 88 5.7 42.3 0 0
01:05 1014 29.94 843 24.89 7.5 45.5 89 5.8 42.4 0 0
01:10 1014 29.94 843 24.89 7.5 45.5 88 5.6 42.1 0 0
01:15 1014 29.94 843 24.89 7.7 45.8 88 5.8 42.4 0 0
01:20 1014 29.94 844 24.92 7.7 45.8 88 5.9 42.6 0 0
01:25 1014 29.94 844 24.92 7.8 46.1 89 6.1 42.9 0 0
01:30 1014 29.94 844 24.92 7.9 46.2 88 6.1 43 0 0
01:35 1014 29.94 844 24.92 7.9 46.1 89 6.2 43.1 0 0
01:40 1014 29.94 844 24.92 7.8 46.1 90 6.3 43.4 .2 0.008
01:45 1015 29.97 844 24.92 7.8 46 90 6.3 43.3 0 0
01:50 1015 29.97 844 24.92 7.8 46 90 6.2 43.1 .2 0.008
01:55 1015 29.97 844 24.92 7.9 46.3 90 6.4 43.5 .2 0.008
02:00 1015 29.97 844 24.92 7.8 46 92 6.6 43.8 .2 0.008
02:05 1015 29.97 844 24.92 7.6 45.8 94 6.7 44 0 0
02:10 1015 29.97 844 24.92 7.6 45.7 93 6.6 43.9 0 0
02:15 1015 29.97 844 24.92 7.7 45.9 93 6.7 44 .2 0.008
02:20 1015 29.97 844 24.92 7.7 45.9 93 6.7 44 0 0
02:25 1015 29.97 844 24.92 7.7 45.9 93 6.7 44 0 0
02:30 1015 29.97 844 24.92 7.7 45.9 93 6.7 44.1 .2 0.008
02:35 1015 29.97 844 24.92 7.7 45.8 93 6.7 44 0 0
02:40 1015 29.97 844 24.92 7.7 45.9 93 6.6 43.9 .2 0.008
02:45 1015 29.97 844 24.92 7.9 46.2 92 6.6 43.9 .2 0.008
02:50 1015 29.97 844 24.92 7.9 46.1 92 6.7 44 0 0
02:55 1015 29.97 844 24.92 7.8 46.1 93 6.7 44.1 0 0
03:00 1015 29.97 844 24.92 7.9 46.1 92 6.7 44 .2 0.008
03:05 1015 29.97 844 24.92 7.9 46.2 93 6.7 44.1 .2 0.008
03:10 1015 29.97 844 24.92 7.8 46 93 6.7 44.1 0 0
03:15 1015 29.97 844 24.92 7.7 45.9 93 6.7 44.1 .2 0.008
03:20 1015 29.97 844 24.92 7.7 45.8 94 6.8 44.2 0 0
03:25 1015 29.97 844 24.92 7.6 45.7 95 6.8 44.2 0 0
03:30 1015 29.97 844 24.92 7.6 45.6 95 6.8 44.3 .2 0.008
03:35 1015 29.97 844 24.92 7.6 45.6 95 6.8 44.3 0 0
03:40 1015 29.97 844 24.92 7.6 45.6 95 6.9 44.4 0 0
03:45 1015 29.97 844 24.92 7.6 45.7 95 6.9 44.4 0 0
03:50 1015 29.97 844 24.92 7.6 45.7 95 6.9 44.4 0 0
03:55 1015 29.97 844 24.92 7.6 45.7 95 6.9 44.4 0 0
04:00 1015 29.97 844 24.92 7.6 45.7 95 6.9 44.3 0 0
04:05 1015 29.97 844 24.92 7.5 45.6 95 6.8 44.3 .2 0.008
04:10 1015 29.97 844 24.92 7.5 45.6 95 6.9 44.3 .2 0.008
04:15 1015 29.97 844 24.92 7.5 45.5 95 6.8 44.3 .2 0.008
04:20 1015 29.97 844 24.92 7.6 45.6 95 6.8 44.2 0 0
04:25 1015 29.97 844 24.92 7.8 46 92 6.5 43.7 0 0
04:30 1014 29.94 844 24.92 7.9 46.2 92 6.7 44 0 0
04:35 1014 29.94 844 24.92 7.8 46.1 92 6.6 43.9 0 0
04:40 1014 29.94 844 24.92 7.8 46 92 6.5 43.8 0 0
04:45 1014 29.94 844 24.92 7.7 45.9 92 6.5 43.7 0 0
04:50 1014 29.94 844 24.92 7.8 46 92 6.5 43.6 0 0
04:55 1014 29.94 843 24.89 7.9 46.1 90 6.2 43.2 0 0
05:00 1014 29.94 843 24.89 8 46.3 89 6.2 43.2 0 0
05:05 1014 29.94 843 24.89 7.9 46.3 89 6.3 43.4 .2 0.008
05:10 1014 29.94 843 24.89 7.9 46.3 88 6.1 43 0 0
05:15 1014 29.94 843 24.89 8 46.5 86 5.8 42.4 0 0
05:20 1014 29.94 844 24.92 8.2 46.8 85 5.8 42.5 0 0
05:25 1014 29.94 843 24.89 8.2 46.7 83 5.5 41.8 0 0
05:30 1014 29.94 843 24.89 8.3 47 84 5.8 42.4 0 0
05:35 1014 29.94 843 24.89 8.2 46.7 85 5.8 42.5 0 0
05:40 1014 29.94 843 24.89 8 46.4 85 5.7 42.2 0 0
05:45 1014 29.94 843 24.89 7.9 46.3 86 5.8 42.4 0 0
05:50 1014 29.94 843 24.89 7.8 46.1 86 5.5 42 0 0
05:55 1014 29.94 843 24.89 7.9 46.1 85 5.5 41.9 0 0
06:00 1014 29.94 843 24.89 7.8 46.1 86 5.6 42 0 0
06:05 1014 29.94 843 24.89 7.8 46 86 5.6 42 0 0
06:10 1014 29.94 843 24.89 7.7 45.9 86 5.5 41.9 0 0
06:15 1014 29.94 843 24.89 7.8 46 86 5.5 41.9 0 0
06:20 1014 29.94 843 24.89 7.7 45.8 87 5.6 42.1 0 0
06:25 1014 29.94 843 24.89 7.6 45.6 87 5.5 41.9 0 0
06:30 1014 29.94 843 24.89 7.5 45.6 87 5.5 41.8 0 0
06:35 1014 29.94 843 24.89 7.6 45.6 86 5.4 41.7 0 0
06:40 1014 29.94 843 24.89 7.6 45.7 85 5.2 41.4 0 0
06:45 1014 29.94 843 24.89 7.7 45.8 84 5.2 41.3 0 0
06:50 1014 29.94 843 24.89 7.7 45.8 85 5.3 41.6 0 0
06:55 1014 29.94 843 24.89 7.4 45.3 87 5.5 41.8 0 0
07:00 1014 29.94 843 24.89 7.2 45 87 5.2 41.4 0 0
07:05 1014 29.94 843 24.89 7.2 45 87 5.1 41.2 0 0
07:10 1014 29.94 843 24.89 7.3 45.2 86 5.1 41.2 0 0
07:15 1014 29.94 843 24.89 7.3 45.1 86 5.2 41.3 0 0
07:20 1014 29.94 843 24.89 7.3 45.1 86 5.1 41.2 0 0
07:25 1014 29.94 843 24.89 7.3 45.2 86 5.1 41.1 0 0
07:30 1014 29.94 843 24.89 7.4 45.3 87 5.3 41.5 0 0
07:35 1014 29.94 843 24.89 7.3 45.1 87 5.3 41.6 0 0
07:40 1014 29.94 843 24.89 7.3 45.2 87 5.3 41.5 0 0
07:45 1014 29.94 843 24.89 7.4 45.2 88 5.4 41.8 0 0
07:50 1014 29.94 843 24.89 7.4 45.3 88 5.5 42 0 0
07:55 1014 29.94 843 24.89 7.4 45.3 89 5.7 42.2 0 0
08:00 1014 29.94 843 24.89 7.4 45.4 89 5.7 42.2 0 0
08:05 1014 29.94 843 24.89 7.5 45.5 89 5.9 42.6 0 0
08:10 1014 29.94 843 24.89 7.6 45.7 89 5.8 42.5 0 0
08:15 1014 29.94 843 24.89 7.7 45.9 86 5.6 42 0 0
08:20 1014 29.94 843 24.89 8 46.5 80 4.8 40.7 0 0
08:25 1014 29.94 843 24.89 8.3 47 82 5.5 41.8 0 0
08:30 1014 29.94 843 24.89 8.2 46.8 85 5.9 42.6 0 0
08:35 1014 29.94 843 24.89 8.1 46.6 85 5.7 42.3 0 0
08:40 1014 29.94 843 24.89 8.1 46.5 85 5.7 42.3 0 0
08:45 1014 29.94 843 24.89 8.1 46.5 86 5.9 42.7 0 0
08:50 1014 29.94 843 24.89 8.1 46.5 88 6.2 43.2 0 0
08:55 1014 29.94 843 24.89 8.1 46.5 89 6.4 43.6 0 0
09:00 1014 29.94 843 24.89 8.2 46.8 88 6.3 43.3 0 0
09:05 1014 29.94 843 24.89 8.4 47.1 84 5.9 42.6 0 0
09:10 1014 29.94 843 24.89 8.6 47.4 84 6 42.8 0 0
09:15 1014 29.94 843 24.89 8.6 47.5 85 6.2 43.1 0 0
09:20 1014 29.94 843 24.89 8.6 47.5 84 6.1 43 0 0
09:25 1014 29.94 843 24.89 8.5 47.3 85 6.2 43.2 0 0
09:30 1014 29.94 843 24.89 8.5 47.3 85 6.2 43.1 0 0
09:35 1014 29.94 843 24.89 8.6 47.4 86 6.4 43.6 0 0
09:40 1014 29.94 843 24.89 8.7 47.7 86 6.5 43.8 0 0
09:45 1014 29.94 843 24.89 9 48.2 86 6.9 44.3 0 0
09:50 1014 29.94 843 24.89 9.3 48.8 82 6.3 43.4 0 0
09:55 1014 29.94 843 24.89 9.7 49.4 79 6.2 43.1 0 0
10:00 1014 29.94 843 24.89 9.8 49.6 79 6.4 43.5 0 0
10:05 1014 29.94 843 24.89 9.8 49.7 78 6.2 43.2 0 0
10:10 1014 29.94 843 24.89 9.8 49.7 79 6.4 43.6 0 0
10:15 1014 29.94 843 24.89 9.8 49.6 81 6.7 44.1 0 0
10:20 1014 29.94 843 24.89 9.7 49.5 82 6.8 44.3 0 0
10:25 1014 29.94 843 24.89 9.9 49.7 80 6.6 44 0 0
10:30 1014 29.94 843 24.89 10.1 50.2 82 7.1 44.8 0 0
10:35 1014 29.94 843 24.89 10.2 50.3 81 7.2 44.9 0 0
10:40 1014 29.94 843 24.89 10.2 50.3 81 7.1 44.8 0 0
10:45 1014 29.94 843 24.89 10.3 50.5 80 6.9 44.5 0 0
10:50 1014 29.94 843 24.89 10.3 50.6 79 6.9 44.5 0 0
10:55 1014 29.94 843 24.89 10.3 50.5 79 6.9 44.4 0 0
11:00 1014 29.94 843 24.89 10.3 50.5 82 7.3 45.2 0 0
11:05 1014 29.94 843 24.89 10.3 50.6 80 7 44.6 0 0
11:10 1014 29.94 843 24.89 10.4 50.7 77 6.5 43.7 0 0
11:15 1014 29.94 843 24.89 10.5 50.8 76 6.3 43.4 0 0
11:20 1014 29.94 843 24.89 10.4 50.7 77 6.6 43.9 0 0
11:25 1014 29.94 843 24.89 10.3 50.5 75 6.1 43 0 0
11:30 1014 29.94 843 24.89 10.3 50.5 77 6.3 43.4 0 0
11:35 1014 29.94 843 24.89 10.2 50.3 76 6.2 43.1 0 0
11:40 1014 29.94 843 24.89 10 49.9 76 6 42.9 0 0
11:45 1014 29.94 843 24.89 9.9 49.9 77 6.1 43.1 0 0
11:50 1014 29.94 843 24.89 9.9 49.7 77 6 42.8 0 0
11:55 1014 29.94 843 24.89 9.9 49.9 81 6.9 44.4 0 0
12:00 1014 29.94 843 24.89 10.1 50.2 77 6.4 43.5 0 0
12:05 1014 29.94 843 24.89 10.1 50.2 77 6.4 43.5 0 0
12:10 1014 29.94 843 24.89 10.2 50.3 79 6.8 44.2 0 0
12:15 1014 29.94 843 24.89 10.2 50.4 78 6.7 44 0 0
12:20 1014 29.94 843 24.89 10.3 50.6 79 6.9 44.4 0 0
12:25 1014 29.94 843 24.89 10.5 51 78 7 44.5 0 0
12:30 1014 29.94 843 24.89 10.7 51.2 75 6.4 43.6 0 0
12:35 1014 29.94 843 24.89 10.7 51.2 74 6.2 43.2 0 0
12:40 1014 29.94 843 24.89 10.7 51.2 75 6.4 43.5 0 0
12:45 1014 29.94 843 24.89 10.6 51 76 6.6 43.9 0 0
12:50 1014 29.94 843 24.89 10.5 50.9 76 6.5 43.7 0 0
12:55 1014 29.94 843 24.89 10.5 50.8 76 6.4 43.6 0 0
13:00 1014 29.94 843 24.89 10.4 50.7 76 6.4 43.5 0 0
13:05 1014 29.94 843 24.89 10.3 50.6 81 7.3 45.1 0 0
13:10 1014 29.94 843 24.89 10.2 50.4 80 7 44.6 .2 0.008
13:15 1014 29.94 843 24.89 10.1 50.1 84 7.5 45.5 0 0
13:20 1014 29.94 843 24.89 10 49.9 86 7.7 45.8 0 0
13:25 1014 29.94 843 24.89 9.9 49.8 83 7.1 44.8 0 0
13:30 1014 29.94 843 24.89 9.9 49.9 82 7 44.6 0 0
13:35 1014 29.94 843 24.89 10 50 85 7.7 45.8 0 0
13:40 1014 29.94 843 24.89 9.9 49.9 83 7.2 45 .2 0.008
13:45 1014 29.94 843 24.89 9.9 49.8 86 7.7 45.9 0 0
13:50 1014 29.94 843 24.89 10 49.9 83 7.2 45 0 0
13:55 1014 29.94 843 24.89 9.9 49.8 83 7.1 44.8 0 0
14:00 1014 29.94 843 24.89 9.8 49.6 85 7.4 45.4 .4 0.016
14:05 1014 29.94 843 24.89 9.6 49.2 87 7.5 45.5 0 0
14:10 1014 29.94 843 24.89 9.6 49.2 83 6.9 44.4 0 0
14:15 1014 29.94 843 24.89 9.7 49.4 81 6.6 44 .2 0.008
14:20 1014 29.94 843 24.89 9.4 48.9 80 6.1 42.9 .2 0.008
14:25 1014 29.94 843 24.89 9.1 48.3 82 6.1 43 .4 0.016
14:30 1014 29.94 843 24.89 9.2 48.5 81 6.1 43 0 0
14:35 1014 29.94 843 24.89 9.6 49.3 81 6.5 43.8 0 0
14:40 1014 29.94 843 24.89 10 50 80 6.7 44.1 0 0
14:45 1014 29.94 843 24.89 10.5 50.9 74 6.2 43.1 0 0
14:50 1014 29.94 843 24.89 10.9 51.6 74 6.5 43.7 0 0
14:55 1013 29.91 843 24.89 11 51.8 71 6 42.8 0 0
15:00 1013 29.91 843 24.89 11.4 52.6 71 6.5 43.6 0 0
15:05 1013 29.91 843 24.89 11.7 53.1 65 5.5 41.8 0 0
15:10 1013 29.91 843 24.89 11.9 53.3 67 5.9 42.6 0 0
15:15 1013 29.91 843 24.89 11.4 52.5 74 7 44.6 0 0
15:20 1013 29.91 843 24.89 11.1 51.9 71 5.9 42.7 0 0
15:25 1013 29.91 842 24.86 10.8 51.4 76 6.7 44 0 0
15:30 1013 29.91 843 24.89 10.6 51 73 5.9 42.6 0 0
15:35 1014 29.94 843 24.89 10 50.1 81 7 44.6 1.2 0.047
15:40 1014 29.94 843 24.89 8.2 46.8 89 6.5 43.7 1.2 0.047
15:45 1014 29.94 843 24.89 7.3 45.1 88 5.5 41.9 .6 0.024
15:50 1014 29.94 843 24.89 7.2 44.9 89 5.5 41.9 1.6 0.063
15:55 1014 29.94 843 24.89 7.1 44.8 90 5.5 41.9 .6 0.024
16:00 1014 29.94 843 24.89 7.4 45.3 87 5.4 41.7 .2 0.008
16:05 1014 29.94 843 24.89 7.9 46.2 83 5.2 41.4 0 0
16:10 1014 29.94 843 24.89 8.3 46.9 86 6 42.8 0 0
16:15 1014 29.94 843 24.89 8.3 46.9 87 6.3 43.3 0 0
16:20 1014 29.94 843 24.89 8.2 46.8 89 6.6 43.8 0 0
16:25 1014 29.94 843 24.89 8.2 46.8 90 6.7 44.1 0 0
16:30 1014 29.94 843 24.89 8.3 46.9 88 6.4 43.6 .2 0.008
16:35 1014 29.94 843 24.89 8.3 46.9 90 6.7 44 .2 0.008
16:40 1014 29.94 843 24.89 8.3 46.9 90 6.7 44 0 0
16:45 1014 29.94 843 24.89 8.3 47 90 6.8 44.3 0 0
16:50 1014 29.94 843 24.89 8.4 47.1 90 6.8 44.3 0 0
16:55 1014 29.94 843 24.89 8.4 47 89 6.6 43.9 0 0
17:00 1014 29.94 843 24.89 8.2 46.8 90 6.6 43.9 0 0
17:05 1014 29.94 843 24.89 8.3 46.9 89 6.5 43.7 .2 0.008
17:10 1014 29.94 843 24.89 8.3 47 89 6.7 44 0 0
17:15 1014 29.94 843 24.89 8.4 47 88 6.4 43.6 0 0
17:20 1014 29.94 843 24.89 8.3 46.9 87 6.3 43.3 0 0
17:25 1014 29.94 843 24.89 8.2 46.7 87 6.1 43 0 0
17:30 1014 29.94 843 24.89 8.1 46.5 86 5.9 42.7 0 0
17:35 1014 29.94 843 24.89 8 46.5 87 6 42.8 0 0
17:40 1014 29.94 843 24.89 8.1 46.5 87 6 42.7 0 0
17:45 1014 29.94 843 24.89 8 46.5 85 5.8 42.4 0 0
17:50 1014 29.94 843 24.89 8 46.5 84 5.5 41.9 0 0
17:55 1014 29.94 843 24.89 8 46.3 84 5.5 41.9 0 0
18:00 1014 29.94 843 24.89 7.8 46.1 85 5.5 41.9 0 0
18:05 1014 29.94 843 24.89 7.8 46 83 5.1 41.2 0 0
18:10 1014 29.94 843 24.89 7.8 46 85 5.4 41.8 0 0
18:15 1014 29.94 843 24.89 7.6 45.7 85 5.3 41.6 .2 0.008
18:20 1014 29.94 843 24.89 7.5 45.5 84 5 41.1 0 0
18:25 1014 29.94 843 24.89 7.3 45.2 85 5 41 0 0
18:30 1014 29.94 843 24.89 7.3 45.1 84 4.7 40.5 0 0
18:35 1014 29.94 843 24.89 7.3 45.1 83 4.6 40.3 0 0
18:40 1014 29.94 843 24.89 7.2 44.9 84 4.7 40.5 0 0
18:45 1014 29.94 843 24.89 7.1 44.8 83 4.4 40 0 0
18:50 1014 29.94 843 24.89 7.2 44.9 82 4.3 39.8 0 0
18:55 1014 29.94 843 24.89 7.2 45 80 4.1 39.3 0 0
19:00 1014 29.94 843 24.89 7.1 44.8 81 4.1 39.4 0 0
19:05 1014 29.94 844 24.92 7 44.6 82 4.2 39.6 0 0
19:10 1014 29.94 844 24.92 6.9 44.5 84 4.4 39.9 0 0
19:15 1014 29.94 844 24.92 6.9 44.3 83 4.1 39.4 0 0
19:20 1014 29.94 844 24.92 6.9 44.4 82 4 39.3 0 0
19:25 1014 29.94 844 24.92 6.9 44.5 80 3.8 38.9 0 0
19:30 1015 29.97 844 24.92 7 44.5 81 3.9 39.1 0 0
19:35 1015 29.97 844 24.92 6.8 44.3 81 3.9 39 0 0
19:40 1015 29.97 844 24.92 6.6 43.9 82 3.7 38.6 0 0
19:45 1015 29.97 844 24.92 6.6 43.9 79 3.3 38 0 0
19:50 1015 29.97 844 24.92 6.7 44 81 3.6 38.6 0 0
19:55 1015 29.97 844 24.92 6.8 44.2 77 3.1 37.6 0 0
20:00 1015 29.97 844 24.92 7 44.6 77 3.3 37.9 0 0
20:05 1015 29.97 844 24.92 7.2 45 74 2.9 37.3 0 0
20:10 1015 29.97 844 24.92 7.7 45.8 66 1.7 35 0 0
20:15 1015 29.97 845 24.95 7.7 45.9 66 1.9 35.4 0 0
20:20 1015 29.97 845 24.95 7.6 45.6 68 2 35.7 0 0
20:25 1015 29.97 845 24.95 7.5 45.5 66 1.5 34.7 0 0
20:30 1016 30 845 24.95 7.5 45.4 65 1.4 34.6 0 0
20:35 1016 30 845 24.95 7.3 45.2 68 1.9 35.4 0 0
20:40 1016 30 845 24.95 7.1 44.8 66 1.3 34.3 0 0
20:45 1016 30 845 24.95 7.1 44.8 66 1.2 34.2 0 0
20:50 1016 30 845 24.95 7.2 44.9 65 1 33.8 0 0
20:55 1016 30 845 24.95 7.2 44.9 64 0.8 33.5 0 0
21:00 1016 30 845 24.95 7.1 44.8 65 1 33.8 0 0
21:05 1016 30 845 24.95 6.9 44.4 66 1 33.8 0 0
21:10 1016 30 845 24.95 6.8 44.2 65 0.7 33.3 0 0
21:15 1016 30 846 24.98 7 44.5 63 0.5 32.9 0 0
21:20 1016 30 846 24.98 6.9 44.4 63 0.4 32.8 0 0
21:25 1016 30 846 24.98 6.7 44 69 1.4 34.5 0 0
21:30 1016 30 846 24.98 6.4 43.5 68 0.9 33.7 0 0
21:35 1017 30.03 846 24.98 6.3 43.3 69 1.1 33.9 0 0
21:40 1017 30.03 846 24.98 6.3 43.3 69 1.1 33.9 0 0
21:45 1017 30.03 846 24.98 6.4 43.5 67 0.8 33.4 0 0
21:50 1017 30.03 846 24.98 6.5 43.6 68 1.1 33.9 0 0
21:55 1017 30.03 846 24.98 6.3 43.3 69 1 33.8 0 0
22:00 1017 30.03 846 24.98 6.3 43.3 68 0.9 33.6 0 0
22:05 1017 30.03 846 24.98 6.1 42.9 70 1.1 34 0 0
22:10 1017 30.03 846 24.98 5.8 42.4 72 1.2 34.1 0 0
22:15 1017 30.03 846 24.98 5.5 42 70 0.5 32.9 0 0
22:20 1017 30.03 846 24.98 5.4 41.8 70 0.5 32.9 0 0
22:25 1017 30.03 846 24.98 5.5 41.9 68 0 32.1 0 0
22:30 1017 30.03 846 24.98 5.7 42.2 66 -0.2 31.7 0 0
22:35 1017 30.03 846 24.98 5.8 42.5 65 -0.2 31.7 0 0
22:40 1017 30.03 846 24.98 5.9 42.5 62 -0.8 30.5 0 0
22:45 1017 30.03 846 24.98 5.8 42.4 64 -0.6 30.9 0 0
22:50 1017 30.03 846 24.98 5.5 41.9 65 -0.5 31.2 0 0
22:55 1017 30.03 846 24.98 5.2 41.3 67 -0.5 31.1 0 0
23:00 1017 30.03 846 24.98 4.7 40.5 72 0 32.1 0 0
23:05 1017 30.03 846 24.98 4 39.3 72 -0.6 30.9 0 0
23:10 1017 30.03 846 24.98 4.1 39.4 73 -0.3 31.5 0 0
23:15 1017 30.03 846 24.98 3.9 39.1 75 -0 32 0 0
23:20 1017 30.03 846 24.98 3.9 39 76 0 32.1 0 0
23:25 1017 30.03 846 24.98 4 39.2 71 -0.7 30.7 0 0
23:30 1017 30.03 846 24.98 4.3 39.7 74 0 32.1 0 0
23:35 1017 30.03 846 24.98 4 39.1 74 -0.2 31.7 0 0
23:40 1017 30.03 846 24.98 4 39.2 74 -0.2 31.7 0 0
23:45 1017 30.03 846 24.98 3.8 38.8 77 0.1 32.1 0 0
23:50 1017 30.03 846 24.98 3.7 38.6 77 -0 32 0 0
23:55 1017 30.03 846 24.98 3.6 38.5 76 -0.2 31.6 0 0
24:00 1017 30.03 846 24.98 3.7 38.7 76 -0.1 31.8 0 0